createdAt,value
2019-05-06T00:02:05.028Z,4.50
2019-05-06T00:04:34.978Z,4.00
2019-05-06T00:07:04.782Z,4.67
2019-05-06T00:09:34.867Z,4.60
2019-05-06T00:12:05.096Z,4.07
2019-05-06T00:14:35.000Z,4.73
2019-05-06T00:17:05.294Z,5.50
2019-05-06T00:19:35.256Z,4.10
2019-05-06T00:22:05.275Z,4.60
2019-05-06T00:24:43.999Z,4.97
2019-05-06T00:27:25.494Z,4.90
2019-05-06T00:29:56.136Z,4.90
2019-05-06T00:32:31.802Z,4.77
2019-05-06T00:35:02.098Z,4.40
2019-05-06T00:37:31.886Z,4.70
2019-05-06T00:40:06.646Z,4.80
2019-05-06T00:42:44.529Z,4.63
2019-05-06T00:45:14.911Z,4.60
2019-05-06T00:47:45.012Z,4.60
2019-05-06T00:50:15.615Z,6.47
2019-05-06T00:52:45.580Z,5.93
2019-05-06T00:55:15.482Z,5.73
2019-05-06T00:57:45.402Z,5.30
2019-05-06T01:00:18.521Z,5.80
2019-05-06T01:02:48.966Z,5.70
2019-05-06T01:05:18.823Z,6.13
2019-05-06T01:07:48.849Z,5.43
2019-05-06T01:10:18.828Z,4.73
2019-05-06T01:13:07.565Z,5.30
2019-05-06T01:15:37.622Z,5.70
2019-05-06T01:18:07.702Z,6.00
2019-05-06T01:20:37.994Z,5.80
2019-05-06T01:23:07.786Z,5.40
2019-05-06T01:25:37.529Z,5.00
2019-05-06T01:28:08.214Z,5.40
2019-05-06T01:30:38.033Z,4.67
2019-05-06T01:33:08.059Z,5.07
2019-05-06T01:35:38.023Z,6.00
2019-05-06T01:38:27.903Z,5.53
2019-05-06T01:41:15.737Z,5.50
2019-05-06T01:43:45.655Z,6.00
2019-05-06T01:46:15.697Z,5.30
2019-05-06T01:48:48.365Z,5.37
2019-05-06T01:51:19.623Z,6.13
2019-05-06T01:53:49.787Z,5.47
2019-05-06T01:56:19.763Z,5.63
2019-05-06T01:58:49.529Z,5.27
2019-05-06T02:01:19.581Z,4.70
2019-05-06T02:03:49.436Z,5.33
2019-05-06T02:06:19.146Z,5.90
2019-05-06T02:08:48.875Z,5.60
2019-05-06T02:11:18.747Z,5.47
2019-05-06T02:13:48.540Z,5.63
2019-05-06T02:16:18.567Z,5.30
2019-05-06T02:19:07.374Z,5.57
2019-05-06T02:21:54.863Z,5.27
2019-05-06T02:24:29.429Z,4.90
2019-05-06T02:26:59.138Z,5.20
2019-05-06T02:29:44.071Z,5.10
2019-05-06T02:32:30.256Z,5.97
2019-05-06T02:35:05.735Z,5.50
2019-05-06T02:37:55.208Z,5.23
2019-05-06T02:40:27.206Z,5.40
2019-05-06T02:42:57.353Z,4.63
2019-05-06T02:45:27.248Z,5.57
2019-05-06T02:48:06.623Z,5.53
2019-05-06T02:50:55.276Z,5.27
2019-05-06T02:53:26.918Z,4.70
2019-05-06T02:55:57.409Z,4.60
2019-05-06T02:58:46.283Z,5.57
2019-05-06T03:01:16.127Z,5.27
2019-05-06T03:03:46.167Z,4.30
2019-05-06T03:06:16.046Z,5.33
2019-05-06T03:08:45.815Z,5.43
2019-05-06T03:11:15.535Z,5.77
2019-05-06T03:13:45.475Z,4.43
2019-05-06T03:16:15.237Z,5.87
2019-05-06T03:18:45.353Z,5.33
2019-05-06T03:21:27.979Z,5.10
2019-05-06T03:24:38.902Z,6.43
2019-05-06T03:27:09.069Z,4.90
2019-05-06T03:29:44.421Z,5.30
2019-05-06T03:32:16.821Z,4.83
2019-05-06T03:35:00.987Z,4.77
2019-05-06T03:37:17.341Z,5.53
2019-05-06T03:39:47.355Z,5.43
2019-05-06T03:44:53.591Z,4.73
2019-05-06T03:47:54.486Z,5.27
2019-05-06T03:50:25.157Z,5.60
2019-05-06T03:52:56.466Z,5.47
2019-05-06T03:55:27.258Z,5.20
2019-05-06T03:58:17.978Z,5.10
2019-05-06T04:00:48.499Z,5.63
2019-05-06T04:03:18.258Z,5.60
2019-05-06T04:05:49.362Z,5.50
2019-05-06T04:08:23.981Z,5.20
2019-05-06T04:10:53.830Z,4.53
2019-05-06T04:13:23.771Z,5.03
2019-05-06T04:16:07.420Z,4.20
2019-05-06T04:18:39.224Z,5.33
2019-05-06T04:21:34.489Z,5.87
2019-05-06T04:24:22.830Z,5.97
2019-05-06T04:27:04.167Z,4.83
2019-05-06T04:29:37.334Z,5.90
2019-05-06T04:32:07.207Z,5.20
2019-05-06T04:34:37.948Z,5.80
2019-05-06T04:37:08.904Z,5.70
2019-05-06T04:39:39.519Z,5.47
2019-05-06T04:42:09.913Z,6.63
2019-05-06T04:44:39.887Z,5.53
2019-05-06T04:47:09.668Z,5.60
2019-05-06T04:49:39.447Z,5.67
2019-05-06T04:52:10.272Z,5.60
2019-05-06T04:54:40.185Z,6.03
2019-05-06T04:57:12.720Z,5.90
2019-05-06T04:59:43.226Z,6.93
2019-05-06T05:02:13.452Z,6.37
2019-05-06T05:04:43.382Z,7.10
2019-05-06T05:07:13.482Z,6.70
2019-05-06T05:09:45.094Z,6.73
2019-05-06T05:15:04.868Z,7.43
2019-05-06T05:17:56.864Z,6.70
2019-05-06T05:20:36.971Z,5.70
2019-05-06T05:22:59.663Z,6.30
2019-05-06T05:25:29.460Z,6.57
2019-05-06T05:27:59.619Z,6.83
2019-05-06T05:30:29.410Z,6.50
2019-05-06T05:32:59.388Z,6.50
2019-05-06T05:35:31.964Z,6.00
2019-05-06T05:38:03.026Z,5.97
2019-05-06T05:40:33.204Z,5.93
2019-05-06T05:43:19.279Z,5.97
2019-05-06T05:45:52.356Z,6.37
2019-05-06T05:48:46.611Z,6.67
2019-05-06T05:51:16.811Z,5.47
2019-05-06T05:53:46.535Z,5.73
2019-05-06T05:56:17.625Z,5.80
2019-05-06T05:58:47.679Z,6.00
2019-05-06T06:01:17.840Z,6.27
2019-05-06T06:03:47.703Z,6.00
2019-05-06T06:06:17.811Z,6.83
2019-05-06T06:08:47.873Z,5.70
2019-05-06T06:11:25.559Z,6.53
2019-05-06T06:13:54.833Z,7.03
2019-05-06T06:16:37.702Z,6.77
2019-05-06T06:19:26.614Z,6.13
2019-05-06T06:22:02.616Z,5.43
2019-05-06T06:24:33.839Z,5.83
2019-05-06T06:27:03.999Z,6.17
2019-05-06T06:29:38.613Z,6.30
2019-05-06T06:32:26.002Z,5.47
2019-05-06T06:35:14.833Z,6.83
2019-05-06T06:37:58.667Z,5.97
2019-05-06T06:40:30.143Z,5.57
2019-05-06T06:43:07.137Z,5.83
2019-05-06T06:45:37.159Z,6.50
2019-05-06T06:48:07.095Z,6.77
2019-05-06T06:50:39.119Z,6.17
2019-05-06T06:53:08.913Z,6.00
2019-05-06T06:55:40.144Z,6.17
2019-05-06T06:58:47.623Z,6.00
2019-05-06T07:01:29.717Z,5.47
2019-05-06T07:04:28.574Z,5.27
2019-05-06T07:06:59.139Z,5.50
2019-05-06T07:09:29.781Z,5.70
2019-05-06T07:12:03.550Z,5.30
2019-05-06T07:14:36.106Z,5.50
2019-05-06T07:17:04.975Z,6.07
2019-05-06T07:19:42.261Z,5.70
2019-05-06T07:22:12.722Z,5.90
2019-05-06T07:24:43.219Z,5.00
2019-05-06T07:27:23.142Z,5.80
2019-05-06T07:29:52.972Z,5.90
2019-05-06T07:32:23.167Z,5.77
2019-05-06T07:34:53.405Z,5.77
2019-05-06T07:37:23.475Z,5.63
2019-05-06T07:39:55.107Z,5.97
2019-05-06T07:42:47.948Z,5.90
2019-05-06T07:45:42.642Z,5.60
2019-05-06T07:48:15.182Z,5.83
2019-05-06T07:50:45.335Z,5.30
2019-05-06T07:53:15.103Z,5.60
2019-05-06T07:55:44.971Z,6.23
2019-05-06T07:58:15.012Z,5.77
2019-05-06T08:00:44.776Z,5.67
2019-05-06T08:03:15.088Z,5.90
2019-05-06T08:05:54.817Z,5.70
2019-05-06T08:08:16.339Z,6.17
2019-05-06T08:10:46.273Z,5.20
2019-05-06T08:13:16.390Z,5.43
2019-05-06T08:15:46.239Z,6.33
2019-05-06T08:18:16.123Z,6.10
2019-05-06T08:20:45.889Z,5.50
2019-05-06T08:23:32.539Z,6.10
2019-05-06T08:26:12.655Z,6.23
2019-05-06T08:28:40.452Z,6.37
2019-05-06T08:31:05.642Z,5.70
2019-05-06T08:33:35.963Z,4.97
2019-05-06T08:36:14.020Z,5.37
2019-05-06T08:38:59.158Z,4.47
2019-05-06T08:41:29.993Z,4.87
2019-05-06T08:44:02.394Z,4.30
2019-05-06T08:46:32.693Z,4.57
2019-05-06T08:49:22.568Z,4.33
2019-05-06T08:52:12.994Z,4.60
2019-05-06T08:54:49.664Z,3.83
2019-05-06T08:57:19.392Z,3.73
2019-05-06T08:59:49.189Z,4.83
2019-05-06T09:02:38.023Z,4.20
2019-05-06T09:05:08.055Z,4.17
2019-05-06T09:07:38.245Z,3.70
2019-05-06T09:10:08.143Z,3.93
2019-05-06T09:12:37.952Z,3.17
2019-05-06T09:15:08.215Z,3.43
2019-05-06T09:17:38.167Z,3.80
2019-05-06T09:20:08.027Z,3.70
2019-05-06T09:22:56.983Z,4.30
2019-05-06T09:25:26.792Z,3.93
2019-05-06T09:28:13.211Z,4.23
2019-05-06T09:30:49.812Z,4.30
2019-05-06T09:33:23.461Z,3.87
2019-05-06T09:35:53.204Z,4.70
2019-05-06T09:38:24.303Z,5.37
2019-05-06T09:40:54.212Z,4.20
2019-05-06T09:43:24.022Z,4.47
2019-05-06T09:45:53.981Z,4.73
2019-05-06T09:48:33.514Z,4.77
2019-05-06T09:51:03.419Z,4.63
2019-05-06T09:54:00.333Z,4.73
2019-05-06T09:56:33.907Z,4.20
2019-05-06T09:59:23.012Z,4.07
2019-05-06T10:01:52.938Z,3.63
2019-05-06T10:04:22.770Z,3.17
2019-05-06T10:06:57.166Z,2.90
2019-05-06T10:09:25.004Z,2.93
2019-05-06T10:11:54.904Z,3.30
2019-05-06T10:14:24.831Z,3.63
2019-05-06T10:16:54.751Z,3.77
2019-05-06T10:19:43.957Z,4.00
2019-05-06T10:22:13.680Z,3.73
2019-05-06T10:24:43.590Z,3.90
2019-05-06T10:27:13.851Z,3.43
2019-05-06T10:29:55.912Z,3.80
2019-05-06T10:33:01.986Z,3.80
2019-05-06T10:35:32.325Z,3.10
2019-05-06T10:38:12.382Z,3.30
2019-05-06T10:41:00.090Z,3.20
2019-05-06T10:43:39.696Z,3.60
2019-05-06T10:46:09.438Z,3.00
2019-05-06T10:48:39.287Z,3.83
2019-05-06T10:51:18.628Z,3.83
2019-05-06T10:53:48.427Z,3.43
2019-05-06T10:56:49.976Z,4.40
2019-05-06T10:59:09.136Z,3.63
2019-05-06T11:01:42.635Z,3.57
2019-05-06T11:04:12.539Z,3.63
2019-05-06T11:06:42.984Z,3.50
2019-05-06T11:09:13.611Z,4.20
2019-05-06T11:11:47.613Z,3.30
2019-05-06T11:14:17.824Z,3.30
2019-05-06T11:16:47.789Z,3.33
2019-05-06T11:19:17.620Z,3.40
2019-05-06T11:21:47.926Z,3.20
2019-05-06T11:24:17.675Z,3.00
2019-05-06T11:26:47.522Z,3.50
2019-05-06T11:29:36.381Z,3.37
2019-05-06T11:32:12.809Z,3.33
2019-05-06T11:34:53.502Z,3.23
2019-05-06T11:37:45.961Z,3.60
2019-05-06T11:40:05.744Z,3.23
2019-05-06T11:42:54.812Z,3.07
2019-05-06T11:45:25.439Z,3.50
2019-05-06T11:47:55.837Z,3.70
2019-05-06T11:50:26.707Z,3.40
2019-05-06T11:52:57.335Z,3.87
2019-05-06T11:55:30.843Z,3.13
2019-05-06T11:58:42.922Z,3.10
2019-05-06T12:01:33.424Z,3.33
2019-05-06T12:04:06.706Z,3.60
2019-05-06T12:06:42.206Z,3.63
2019-05-06T12:09:16.513Z,4.00
2019-05-06T12:11:44.116Z,3.93
2019-05-06T12:14:13.921Z,3.80
2019-05-06T12:16:43.785Z,3.13
2019-05-06T12:19:32.614Z,3.60
2019-05-06T12:22:02.851Z,3.70
2019-05-06T12:24:32.736Z,3.60
2019-05-06T12:27:03.295Z,3.40
2019-05-06T12:29:42.824Z,3.20
2019-05-06T12:32:33.183Z,3.70
2019-05-06T12:35:03.655Z,3.40
2019-05-06T12:37:33.614Z,4.20
2019-05-06T12:40:03.706Z,4.17
2019-05-06T12:42:49.802Z,4.60
2019-05-06T12:45:53.981Z,4.30
2019-05-06T12:48:36.483Z,4.20
2019-05-06T12:51:06.280Z,4.73
2019-05-06T12:53:36.163Z,4.40
2019-05-06T12:56:07.172Z,4.50
2019-05-06T12:58:56.201Z,4.50
2019-05-06T13:01:27.558Z,4.70
2019-05-06T13:03:57.438Z,4.93
2019-05-06T13:06:27.175Z,4.50
2019-05-06T13:09:05.279Z,5.40
2019-05-06T13:11:37.268Z,5.27
2019-05-06T13:14:09.949Z,5.37
2019-05-06T13:16:39.714Z,5.40
2019-05-06T13:19:11.953Z,5.63
2019-05-06T13:21:42.286Z,5.20
2019-05-06T13:24:13.154Z,5.50
2019-05-06T13:26:43.299Z,4.70
2019-05-06T13:29:34.799Z,4.60
2019-05-06T13:32:02.502Z,5.67
2019-05-06T13:34:52.629Z,4.60
2019-05-06T13:37:27.872Z,4.60
2019-05-06T13:39:57.832Z,4.90
2019-05-06T13:42:29.656Z,4.97
2019-05-06T13:44:59.658Z,5.10
2019-05-06T13:47:47.132Z,4.87
2019-05-06T13:50:19.682Z,4.40
2019-05-06T13:53:07.272Z,5.23
2019-05-06T13:55:22.233Z,5.77
2019-05-06T13:57:52.462Z,5.20
2019-05-06T14:00:22.608Z,5.20
2019-05-06T14:02:54.887Z,4.90
2019-05-06T14:05:25.925Z,5.00
2019-05-06T14:07:56.157Z,5.60
2019-05-06T14:10:25.947Z,5.30
2019-05-06T14:12:57.355Z,5.33
2019-05-06T14:15:27.235Z,5.03
2019-05-06T14:17:57.039Z,4.83
2019-05-06T14:20:27.748Z,4.20
2019-05-06T14:23:16.808Z,4.97
2019-05-06T14:26:05.513Z,5.10
2019-05-06T14:28:42.765Z,5.70
2019-05-06T14:31:25.743Z,5.30
2019-05-06T14:33:55.831Z,4.70
2019-05-06T14:36:27.506Z,5.70
2019-05-06T14:39:24.023Z,5.67
2019-05-06T14:41:55.260Z,5.13
2019-05-06T14:44:25.360Z,5.10
2019-05-06T14:47:03.807Z,5.37
2019-05-06T14:49:33.542Z,6.60
2019-05-06T14:52:03.476Z,5.63
2019-05-06T14:54:54.291Z,6.27
2019-05-06T14:57:24.979Z,5.63
2019-05-06T14:59:56.550Z,6.33
2019-05-06T15:02:27.816Z,5.80
2019-05-06T15:04:58.927Z,5.80
2019-05-06T15:07:28.675Z,6.57
2019-05-06T15:10:16.495Z,6.47
2019-05-06T15:12:29.991Z,6.70
2019-05-06T15:14:59.752Z,6.90
2019-05-06T15:17:29.719Z,7.27
2019-05-06T15:19:59.556Z,6.87
2019-05-06T15:22:48.431Z,6.80
2019-05-06T15:25:18.195Z,7.00
2019-05-06T15:27:48.232Z,7.70
2019-05-06T15:30:25.347Z,8.47
2019-05-06T15:32:55.134Z,7.20
2019-05-06T15:35:43.984Z,8.40
2019-05-06T15:38:22.107Z,8.70
2019-05-06T15:40:52.603Z,9.60
2019-05-06T15:43:23.477Z,9.20
2019-05-06T15:45:53.266Z,9.53
2019-05-06T15:48:23.190Z,8.17
2019-05-06T15:50:53.395Z,7.60
2019-05-06T15:53:23.699Z,7.77
2019-05-06T15:55:53.674Z,7.23
2019-05-06T15:58:42.469Z,7.77
2019-05-06T16:01:14.416Z,7.30
2019-05-06T16:03:45.740Z,7.40
2019-05-06T16:06:15.995Z,7.33
2019-05-06T16:08:45.811Z,8.10
2019-05-06T16:11:15.768Z,6.63
2019-05-06T16:13:46.433Z,7.03
2019-05-06T16:16:16.200Z,5.60
2019-05-06T16:18:45.979Z,4.93
2019-05-06T16:21:16.518Z,6.07
2019-05-06T16:23:54.972Z,5.30
2019-05-06T16:26:24.940Z,5.53
2019-05-06T16:28:54.789Z,4.80
2019-05-06T16:31:25.310Z,6.03
2019-05-06T16:33:56.942Z,5.20
2019-05-06T16:36:26.742Z,5.20
2019-05-06T16:38:56.533Z,5.43
2019-05-06T16:41:26.407Z,5.50
2019-05-06T16:43:56.196Z,5.40
2019-05-06T16:46:25.892Z,4.93
2019-05-06T16:48:56.136Z,6.07
2019-05-06T16:51:25.898Z,5.70
2019-05-06T16:53:55.672Z,5.23
2019-05-06T16:56:42.174Z,6.90
2019-05-06T16:59:11.452Z,5.53
2019-05-06T17:01:44.456Z,5.80
2019-05-06T17:04:48.023Z,6.07
2019-05-06T17:07:19.347Z,5.10
2019-05-06T17:09:52.636Z,5.77
2019-05-06T17:12:23.856Z,6.13
2019-05-06T17:14:54.052Z,6.23
2019-05-06T17:17:46.633Z,7.23
2019-05-06T17:20:14.678Z,7.23
2019-05-06T17:22:44.472Z,6.60
2019-05-06T17:25:17.494Z,8.10
2019-05-06T17:27:50.151Z,7.47
2019-05-06T17:30:28.624Z,8.50
2019-05-06T17:33:17.349Z,8.93
2019-05-06T17:35:47.246Z,8.43
2019-05-06T17:38:43.128Z,9.50
2019-05-06T17:41:13.075Z,8.40
2019-05-06T17:43:44.087Z,9.07
2019-05-06T17:46:15.862Z,9.80
2019-05-06T17:48:59.382Z,9.97
2019-05-06T17:51:42.566Z,10.47
2019-05-06T17:54:32.455Z,10.40
2019-05-06T17:57:04.704Z,11.50
2019-05-06T17:59:37.315Z,11.07
2019-05-06T18:02:09.649Z,11.40
2019-05-06T18:04:39.429Z,11.17
2019-05-06T18:07:09.188Z,10.17
2019-05-06T18:09:39.377Z,12.13
2019-05-06T18:12:09.256Z,11.77
2019-05-06T18:14:40.615Z,11.47
2019-05-06T18:17:12.505Z,12.43
2019-05-06T18:19:42.504Z,12.20
2019-05-06T18:22:13.164Z,12.60
2019-05-06T18:24:43.533Z,11.90
2019-05-06T18:27:13.441Z,11.80
2019-05-06T18:29:43.179Z,12.37
2019-05-06T18:32:13.079Z,11.70
2019-05-06T18:34:43.024Z,12.50
2019-05-06T18:37:12.916Z,13.07
2019-05-06T18:39:43.863Z,12.00
2019-05-06T18:42:19.831Z,12.23
2019-05-06T18:44:45.026Z,12.20
2019-05-06T18:47:14.984Z,12.43
2019-05-06T18:49:44.796Z,12.20
2019-05-06T18:52:14.553Z,12.33
2019-05-06T18:54:44.580Z,12.90
2019-05-06T18:57:14.362Z,13.40
2019-05-06T18:59:44.081Z,13.40
2019-05-06T19:02:15.076Z,12.53
2019-05-06T19:04:55.633Z,12.80
2019-05-06T19:07:28.630Z,13.83
2019-05-06T19:10:08.303Z,13.47
2019-05-06T19:12:41.348Z,13.60
2019-05-06T19:15:09.929Z,13.23
2019-05-06T19:17:39.983Z,14.30
2019-05-06T19:20:09.967Z,13.63
2019-05-06T19:22:39.803Z,14.23
2019-05-06T19:25:13.932Z,14.57
2019-05-06T19:27:42.010Z,15.40
2019-05-06T19:30:12.942Z,15.20
2019-05-06T19:33:03.062Z,14.60
2019-05-06T19:35:36.854Z,14.97
2019-05-06T19:38:05.227Z,15.47
2019-05-06T19:40:35.306Z,14.60
2019-05-06T19:43:05.555Z,14.30
2019-05-06T19:45:35.335Z,13.20
2019-05-06T19:48:06.097Z,14.37
2019-05-06T19:50:36.880Z,13.37
2019-05-06T19:53:07.181Z,14.23
2019-05-06T19:55:37.142Z,13.60
2019-05-06T19:58:06.975Z,13.93
2019-05-06T20:00:36.811Z,13.87
2019-05-06T20:03:06.695Z,14.27
2019-05-06T20:06:02.350Z,12.97
2019-05-06T20:08:57.474Z,12.50
2019-05-06T20:11:33.112Z,13.03
2019-05-06T20:14:04.235Z,13.43
2019-05-06T20:16:34.012Z,12.63
2019-05-06T20:19:03.852Z,12.57
2019-05-06T20:21:33.735Z,12.57
2019-05-06T20:24:03.598Z,12.13
2019-05-06T20:26:33.366Z,10.70
2019-05-06T20:29:03.725Z,10.47
2019-05-06T20:31:33.484Z,9.70
2019-05-06T20:34:03.365Z,8.87
2019-05-06T20:36:34.090Z,9.40
2019-05-06T20:39:05.605Z,8.20
2019-05-06T20:41:35.462Z,7.50
2019-05-06T20:44:06.181Z,7.57
2019-05-06T20:46:35.955Z,6.43
2019-05-06T20:49:05.691Z,6.60
2019-05-06T20:51:36.376Z,6.73
2019-05-06T20:54:06.079Z,6.80
2019-05-06T20:56:35.854Z,6.67
2019-05-06T20:59:07.152Z,6.80
2019-05-06T21:01:36.889Z,5.87
2019-05-06T21:04:06.687Z,6.63
2019-05-06T21:06:36.587Z,6.93
2019-05-06T21:09:08.924Z,6.53
2019-05-06T21:11:38.679Z,6.07
2019-05-06T21:14:09.866Z,5.67
2019-05-06T21:16:39.637Z,6.60
2019-05-06T21:19:09.379Z,5.87
2019-05-06T21:21:39.668Z,7.13
2019-05-06T21:24:09.505Z,5.73
2019-05-06T21:26:39.261Z,6.37
2019-05-06T21:29:09.559Z,7.03
2019-05-06T21:31:39.396Z,6.20
2019-05-06T21:34:09.189Z,7.40
2019-05-06T21:36:42.047Z,6.60
2019-05-06T21:39:13.066Z,6.73
2019-05-06T21:41:43.199Z,6.37
2019-05-06T21:44:13.492Z,7.77
2019-05-06T21:46:43.253Z,7.80
2019-05-06T21:49:32.777Z,7.30
2019-05-06T21:52:02.759Z,7.40
2019-05-06T21:54:32.893Z,7.73
2019-05-06T21:57:03.240Z,7.83
2019-05-06T21:59:33.002Z,9.30
2019-05-06T22:02:04.174Z,7.77
2019-05-06T22:04:34.315Z,8.00
2019-05-06T22:07:04.147Z,7.60
2019-05-06T22:09:33.888Z,8.03
2019-05-06T22:12:04.080Z,7.10
2019-05-06T22:14:34.270Z,7.40
2019-05-06T22:17:05.873Z,8.47
2019-05-06T22:19:35.835Z,7.50
2019-05-06T22:22:07.522Z,7.50
2019-05-06T22:24:46.301Z,7.83
2019-05-06T22:27:16.674Z,8.43
2019-05-06T22:29:46.571Z,7.10
2019-05-06T22:32:16.849Z,9.00
2019-05-06T22:34:46.594Z,9.50
2019-05-06T22:37:16.333Z,8.13
2019-05-06T22:39:46.127Z,9.97
2019-05-06T22:42:35.332Z,9.37
2019-05-06T22:45:05.411Z,9.60
2019-05-06T22:47:35.172Z,10.40
2019-05-06T22:50:05.583Z,11.27
2019-05-06T22:52:35.505Z,11.50
2019-05-06T22:55:05.547Z,10.43
2019-05-06T22:57:35.329Z,10.90
2019-05-06T23:00:08.888Z,10.20
2019-05-06T23:02:48.483Z,12.77
2019-05-06T23:05:19.398Z,10.93
2019-05-06T23:07:49.110Z,13.00
2019-05-06T23:10:18.955Z,12.00
2019-05-06T23:12:48.839Z,13.13
2019-05-06T23:15:18.583Z,12.70
2019-05-06T23:17:48.316Z,12.30
2019-05-06T23:20:18.502Z,11.83
2019-05-06T23:22:48.319Z,13.00
2019-05-06T23:25:18.079Z,12.70
2019-05-06T23:27:47.927Z,11.83
2019-05-06T23:30:17.735Z,12.70
2019-05-06T23:32:47.449Z,12.87
2019-05-06T23:35:17.792Z,12.87
2019-05-06T23:38:23.032Z,12.83
2019-05-06T23:41:28.522Z,12.40
2019-05-06T23:44:45.066Z,12.07
2019-05-06T23:47:42.231Z,11.90
2019-05-06T23:50:47.583Z,11.97
2019-05-06T23:53:53.011Z,12.37
2019-05-06T23:56:39.742Z,11.43
2019-05-06T23:59:12.356Z,11.77
